createdAt,value
2019-01-30T00:00:49.472Z,99.99
2019-01-30T00:01:49.577Z,99.99
2019-01-30T00:02:49.482Z,99.99
2019-01-30T00:03:49.546Z,99.99
2019-01-30T00:04:49.563Z,99.99
2019-01-30T00:05:49.541Z,99.99
2019-01-30T00:06:49.492Z,99.99
2019-01-30T00:07:49.517Z,99.99
2019-01-30T00:08:49.475Z,99.99
2019-01-30T00:09:49.482Z,99.99
2019-01-30T00:10:49.535Z,99.99
2019-01-30T00:11:49.498Z,99.99
2019-01-30T00:12:49.489Z,99.99
2019-01-30T00:13:49.494Z,99.99
2019-01-30T00:14:49.502Z,99.99
2019-01-30T00:15:56.015Z,99.99
2019-01-30T00:16:49.514Z,99.99
2019-01-30T00:17:49.557Z,99.99
2019-01-30T00:18:49.483Z,99.99
2019-01-30T00:19:49.649Z,99.99
2019-01-30T00:20:49.483Z,99.99
2019-01-30T00:21:49.560Z,99.99
2019-01-30T00:22:49.485Z,99.99
2019-01-30T00:23:49.485Z,99.99
2019-01-30T00:24:49.501Z,99.99
2019-01-30T00:25:49.560Z,99.99
2019-01-30T00:26:49.561Z,99.99
2019-01-30T00:27:49.570Z,99.99
2019-01-30T00:28:49.521Z,99.99
2019-01-30T00:29:49.565Z,99.99
2019-01-30T00:30:49.488Z,99.99
2019-01-30T00:31:49.459Z,99.99
2019-01-30T00:32:49.576Z,99.99
2019-01-30T00:33:49.567Z,99.99
2019-01-30T00:34:49.625Z,99.99
2019-01-30T00:35:49.527Z,99.99
2019-01-30T00:36:49.496Z,99.99
2019-01-30T00:37:49.569Z,99.99
2019-01-30T00:38:49.620Z,99.99
2019-01-30T00:39:49.497Z,99.99
2019-01-30T00:40:49.508Z,99.99
2019-01-30T00:41:49.572Z,99.99
2019-01-30T00:42:49.574Z,99.99
2019-01-30T00:43:49.455Z,99.99
2019-01-30T00:44:49.572Z,99.99
2019-01-30T00:45:49.582Z,99.99
2019-01-30T00:46:49.597Z,99.99
2019-01-30T00:47:49.518Z,99.99
2019-01-30T00:48:49.569Z,99.99
2019-01-30T00:49:49.594Z,99.99
2019-01-30T00:50:49.502Z,99.99
2019-01-30T00:51:49.568Z,99.99
2019-01-30T00:52:49.569Z,99.99
2019-01-30T00:53:49.574Z,99.99
2019-01-30T00:54:49.575Z,99.99
2019-01-30T00:55:49.502Z,99.99
2019-01-30T00:56:49.570Z,99.99
2019-01-30T00:57:49.575Z,99.99
2019-01-30T00:58:49.572Z,99.99
2019-01-30T00:59:49.566Z,99.99
2019-01-30T01:00:49.566Z,99.99
2019-01-30T01:01:49.523Z,99.99
2019-01-30T01:02:49.523Z,99.99
2019-01-30T01:03:49.583Z,99.99
2019-01-30T01:04:49.462Z,99.99
2019-01-30T01:05:49.458Z,99.99
2019-01-30T01:06:49.659Z,99.99
2019-01-30T01:07:49.478Z,99.99
2019-01-30T01:08:49.458Z,99.99
2019-01-30T01:09:49.524Z,99.99
2019-01-30T01:10:49.578Z,99.99
2019-01-30T01:11:49.463Z,99.99
2019-01-30T01:12:49.508Z,99.99
2019-01-30T01:13:49.570Z,99.99
2019-01-30T01:14:49.588Z,99.99
2019-01-30T01:15:49.530Z,99.99
2019-01-30T01:16:49.541Z,99.99
2019-01-30T01:17:49.583Z,99.99
2019-01-30T01:18:49.532Z,99.99
2019-01-30T01:19:49.620Z,99.99
2019-01-30T01:20:49.532Z,99.99
2019-01-30T01:21:49.619Z,99.99
2019-01-30T01:22:49.601Z,99.99
2019-01-30T01:23:49.568Z,99.99
2019-01-30T01:24:49.534Z,99.99
2019-01-30T01:25:49.529Z,99.99
2019-01-30T01:26:49.610Z,99.99
2019-01-30T01:27:49.529Z,99.99
2019-01-30T01:28:49.592Z,99.99
2019-01-30T01:29:49.609Z,99.99
2019-01-30T01:30:49.530Z,99.99
2019-01-30T01:31:49.598Z,99.99
2019-01-30T01:32:49.597Z,99.99
2019-01-30T01:33:49.537Z,99.99
2019-01-30T01:34:49.529Z,99.99
2019-01-30T01:35:49.600Z,99.99
2019-01-30T01:36:49.523Z,99.99
2019-01-30T01:37:49.534Z,99.99
2019-01-30T01:38:49.616Z,99.99
2019-01-30T01:39:50.991Z,99.99
2019-01-30T01:40:49.630Z,99.99
2019-01-30T01:41:49.617Z,99.99
2019-01-30T01:42:49.550Z,99.99
2019-01-30T01:43:49.504Z,99.99
2019-01-30T01:44:49.561Z,99.99
2019-01-30T01:45:49.546Z,99.99
2019-01-30T01:46:49.625Z,99.99
2019-01-30T01:47:49.727Z,99.99
2019-01-30T01:48:49.544Z,99.99
2019-01-30T01:49:49.619Z,99.99
2019-01-30T01:50:49.547Z,99.99
2019-01-30T01:51:49.562Z,99.99
2019-01-30T01:52:49.634Z,99.99
2019-01-30T01:53:49.583Z,99.99
2019-01-30T01:54:49.642Z,99.99
2019-01-30T01:55:49.549Z,99.99
2019-01-30T01:56:49.627Z,99.99
2019-01-30T01:57:49.570Z,99.99
2019-01-30T01:58:49.552Z,99.99
2019-01-30T01:59:49.631Z,99.99
2019-01-30T02:00:49.570Z,99.99
2019-01-30T02:01:49.628Z,99.99
2019-01-30T02:02:49.574Z,99.99
2019-01-30T02:03:49.558Z,99.99
2019-01-30T02:04:49.631Z,99.99
2019-01-30T02:05:49.560Z,99.99
2019-01-30T02:06:49.599Z,99.99
2019-01-30T02:07:49.557Z,99.99
2019-01-30T02:08:49.561Z,99.99
2019-01-30T02:09:49.559Z,99.99
2019-01-30T02:10:49.587Z,99.99
2019-01-30T02:11:49.563Z,99.99
2019-01-30T02:12:49.563Z,99.99
2019-01-30T02:13:49.566Z,99.99
2019-01-30T02:14:49.733Z,99.99
2019-01-30T02:15:49.582Z,99.99
2019-01-30T02:16:49.725Z,99.99
2019-01-30T02:17:49.572Z,99.99
2019-01-30T02:18:49.633Z,99.99
2019-01-30T02:19:49.560Z,99.99
2019-01-30T02:20:49.689Z,99.99
2019-01-30T02:21:49.630Z,99.99
2019-01-30T02:22:49.563Z,99.99
2019-01-30T02:23:49.638Z,99.99
2019-01-30T02:24:49.564Z,99.99
2019-01-30T02:25:49.632Z,99.99
2019-01-30T02:26:49.573Z,99.99
2019-01-30T02:27:49.637Z,99.99
2019-01-30T02:28:49.607Z,99.99
2019-01-30T02:29:49.576Z,99.99
2019-01-30T02:30:49.576Z,99.99
2019-01-30T02:31:49.584Z,99.99
2019-01-30T02:32:49.653Z,99.99
2019-01-30T02:33:49.576Z,99.99
2019-01-30T02:34:49.578Z,99.99
2019-01-30T02:35:49.579Z,99.99
2019-01-30T02:36:49.659Z,99.99
2019-01-30T02:37:49.653Z,99.99
2019-01-30T02:38:49.653Z,99.99
2019-01-30T02:39:49.592Z,99.99
2019-01-30T02:40:49.654Z,99.99
2019-01-30T02:41:49.653Z,99.99
2019-01-30T02:42:49.657Z,99.99
2019-01-30T02:43:49.600Z,99.99
2019-01-30T02:44:49.621Z,99.99
2019-01-30T02:45:49.586Z,99.99
2019-01-30T02:46:49.616Z,99.99
2019-01-30T02:47:49.662Z,99.99
2019-01-30T02:48:49.598Z,99.99
2019-01-30T02:49:49.649Z,99.99
2019-01-30T02:50:49.596Z,99.99
2019-01-30T02:51:49.556Z,99.99
2019-01-30T02:52:49.550Z,99.99
2019-01-30T02:53:49.583Z,99.99
2019-01-30T02:54:49.659Z,99.99
2019-01-30T02:55:49.623Z,99.99
2019-01-30T02:56:49.659Z,99.99
2019-01-30T02:57:49.614Z,99.99
2019-01-30T02:58:49.598Z,99.99
2019-01-30T02:59:49.677Z,99.99
2019-01-30T03:00:58.738Z,99.99
2019-01-30T03:01:49.598Z,99.99
2019-01-30T03:02:49.769Z,99.99
2019-01-30T03:03:49.599Z,99.99
2019-01-30T03:04:49.682Z,99.99
2019-01-30T03:05:49.678Z,99.99
2019-01-30T03:06:49.679Z,99.99
2019-01-30T03:07:49.605Z,99.99
2019-01-30T03:08:49.663Z,99.99
2019-01-30T03:09:49.621Z,99.99
2019-01-30T03:10:49.666Z,99.99
2019-01-30T03:11:49.596Z,99.99
2019-01-30T03:12:49.665Z,99.99
2019-01-30T03:13:49.671Z,99.99
2019-01-30T03:14:49.603Z,99.99
2019-01-30T03:15:49.606Z,99.99
2019-01-30T03:16:49.670Z,99.99
2019-01-30T03:17:49.612Z,99.99
2019-01-30T03:18:49.606Z,99.99
2019-01-30T03:19:49.628Z,99.99
2019-01-30T03:20:49.578Z,99.99
2019-01-30T03:21:49.759Z,99.99
2019-01-30T03:22:49.698Z,99.99
2019-01-30T03:23:49.692Z,99.99
2019-01-30T03:24:49.578Z,99.99
2019-01-30T03:25:49.631Z,99.99
2019-01-30T03:26:49.702Z,99.99
2019-01-30T03:27:49.708Z,99.99
2019-01-30T03:28:49.614Z,99.99
2019-01-30T03:29:49.616Z,99.99
2019-01-30T03:30:49.623Z,99.99
2019-01-30T03:31:49.620Z,99.99
2019-01-30T03:32:49.640Z,99.99
2019-01-30T03:33:49.713Z,99.99
2019-01-30T03:34:49.692Z,99.99
2019-01-30T03:35:49.624Z,99.99
2019-01-30T03:36:49.691Z,99.99
2019-01-30T03:37:49.699Z,99.99
2019-01-30T03:38:49.685Z,99.99
2019-01-30T03:39:49.685Z,99.99
2019-01-30T03:40:49.632Z,99.99
2019-01-30T03:41:49.618Z,99.99
2019-01-30T03:42:49.693Z,99.99
2019-01-30T03:43:49.619Z,99.99
2019-01-30T03:44:49.690Z,99.99
2019-01-30T03:45:49.626Z,99.99
2019-01-30T03:46:49.697Z,99.99
2019-01-30T03:47:49.618Z,99.99
2019-01-30T03:48:49.627Z,99.99
2019-01-30T03:49:49.624Z,99.99
2019-01-30T03:50:49.697Z,99.99
2019-01-30T03:51:49.624Z,99.99
2019-01-30T03:52:49.693Z,99.99
2019-01-30T03:53:49.630Z,99.99
2019-01-30T03:54:49.703Z,99.99
2019-01-30T03:55:49.624Z,99.99
2019-01-30T03:56:49.696Z,99.99
2019-01-30T03:57:49.625Z,99.99
2019-01-30T03:58:49.581Z,99.99
2019-01-30T03:59:49.580Z,99.99
2019-01-30T04:00:49.605Z,99.99
2019-01-30T04:01:49.688Z,99.99
2019-01-30T04:02:49.697Z,99.99
2019-01-30T04:03:49.698Z,99.99
2019-01-30T04:04:49.683Z,99.99
2019-01-30T04:05:49.680Z,99.99
2019-01-30T04:06:49.694Z,99.99
2019-01-30T04:07:49.689Z,99.99
2019-01-30T04:08:49.738Z,99.99
2019-01-30T04:09:49.717Z,99.99
2019-01-30T04:10:49.645Z,99.99
2019-01-30T04:11:49.814Z,99.99
2019-01-30T04:12:49.657Z,99.99
2019-01-30T04:13:49.666Z,99.99
2019-01-30T04:14:49.647Z,99.99
2019-01-30T04:15:49.725Z,99.99
2019-01-30T04:16:49.726Z,99.99
2019-01-30T04:17:49.703Z,99.99
2019-01-30T04:18:49.639Z,99.99
2019-01-30T04:19:49.738Z,99.99
2019-01-30T04:20:49.713Z,99.99
2019-01-30T04:21:49.646Z,99.99
2019-01-30T04:22:49.718Z,99.99
2019-01-30T04:23:49.645Z,99.99
2019-01-30T04:24:49.662Z,99.99
2019-01-30T04:25:49.716Z,99.99
2019-01-30T04:26:49.657Z,99.99
2019-01-30T04:27:49.729Z,99.99
2019-01-30T04:28:49.707Z,99.99
2019-01-30T04:29:49.706Z,99.99
2019-01-30T04:30:49.679Z,99.99
2019-01-30T04:31:49.791Z,99.99
2019-01-30T04:32:49.716Z,99.99
2019-01-30T04:33:49.625Z,99.99
2019-01-30T04:34:49.720Z,99.99
2019-01-30T04:35:49.723Z,99.99
2019-01-30T04:36:49.725Z,99.99
2019-01-30T04:37:49.630Z,99.99
2019-01-30T04:38:49.690Z,99.99
2019-01-30T04:39:49.669Z,99.99
2019-01-30T04:40:49.666Z,99.99
2019-01-30T04:41:49.746Z,99.99
2019-01-30T04:42:49.688Z,99.99
2019-01-30T04:43:49.756Z,99.99
2019-01-30T04:44:49.687Z,99.99
2019-01-30T04:45:49.749Z,99.99
2019-01-30T04:46:49.747Z,99.99
2019-01-30T04:47:49.671Z,99.99
2019-01-30T04:48:49.747Z,99.99
2019-01-30T04:49:49.678Z,99.99
2019-01-30T04:50:49.752Z,99.99
2019-01-30T04:51:49.690Z,99.99
2019-01-30T04:52:49.639Z,99.99
2019-01-30T04:53:49.757Z,99.99
2019-01-30T04:54:49.783Z,99.99
2019-01-30T04:55:49.673Z,99.99
2019-01-30T04:56:49.759Z,99.99
2019-01-30T04:57:49.677Z,99.99
2019-01-30T04:58:49.677Z,99.99
2019-01-30T04:59:49.761Z,99.99
2019-01-30T05:00:49.774Z,99.86
2019-01-30T05:01:50.188Z,99.70
2019-01-30T05:02:49.687Z,99.48
2019-01-30T05:03:49.752Z,99.32
2019-01-30T05:04:49.756Z,99.07
2019-01-30T05:05:49.682Z,98.94
2019-01-30T05:06:49.684Z,98.83
2019-01-30T05:07:49.842Z,98.72
2019-01-30T05:08:49.746Z,98.72
2019-01-30T05:09:49.630Z,98.69
2019-01-30T05:10:49.620Z,98.77
2019-01-30T05:11:49.694Z,98.64
2019-01-30T05:12:49.735Z,98.59
2019-01-30T05:13:49.623Z,98.48
2019-01-30T05:14:49.747Z,98.26
2019-01-30T05:15:49.653Z,98.15
2019-01-30T05:16:49.625Z,98.02
2019-01-30T05:17:49.696Z,97.83
2019-01-30T05:18:49.755Z,97.72
2019-01-30T05:19:49.689Z,97.66
2019-01-30T05:20:49.766Z,97.61
2019-01-30T05:21:49.687Z,97.61
2019-01-30T05:22:49.756Z,97.66
2019-01-30T05:23:49.766Z,97.64
2019-01-30T05:24:49.692Z,97.66
2019-01-30T05:25:49.775Z,97.74
2019-01-30T05:26:49.691Z,97.83
2019-01-30T05:27:49.764Z,97.83
2019-01-30T05:29:49.787Z,97.93
2019-01-30T05:30:49.787Z,97.99
2019-01-30T05:32:00.669Z,98.04
2019-01-30T05:32:49.711Z,98.12
2019-01-30T05:33:49.786Z,98.18
2019-01-30T05:34:49.761Z,98.12
2019-01-30T05:35:49.709Z,98.04
2019-01-30T05:36:49.707Z,98.02
2019-01-30T05:37:51.423Z,98.02
2019-01-30T05:38:49.712Z,98.07
2019-01-30T05:39:49.723Z,98.07
2019-01-30T05:40:49.678Z,98.07
2019-01-30T05:41:49.721Z,98.10
2019-01-30T05:42:49.704Z,98.12
2019-01-30T05:43:49.776Z,98.29
2019-01-30T05:44:49.676Z,98.40
2019-01-30T05:45:49.773Z,98.61
2019-01-30T05:46:49.766Z,98.72
2019-01-30T05:47:49.684Z,98.80
2019-01-30T05:48:49.639Z,98.96
2019-01-30T05:49:49.789Z,99.04
2019-01-30T05:50:49.845Z,99.32
2019-01-30T05:51:49.792Z,99.34
2019-01-30T05:52:49.805Z,99.40
2019-01-30T05:53:49.751Z,99.51
2019-01-30T05:54:49.717Z,99.59
2019-01-30T05:55:49.816Z,99.62
2019-01-30T05:56:49.803Z,99.72
2019-01-30T05:57:49.820Z,99.81
2019-01-30T05:58:49.799Z,99.89
2019-01-30T05:59:49.657Z,99.94
2019-01-30T06:00:49.766Z,99.99
2019-01-30T06:01:49.706Z,99.99
2019-01-30T06:02:49.775Z,99.99
2019-01-30T06:03:49.718Z,99.99
2019-01-30T06:04:49.669Z,99.99
2019-01-30T06:05:49.754Z,99.99
2019-01-30T06:06:49.728Z,99.99
2019-01-30T06:07:49.783Z,99.94
2019-01-30T06:08:49.743Z,99.81
2019-01-30T06:09:49.731Z,99.72
2019-01-30T06:10:49.814Z,99.67
2019-01-30T06:11:49.829Z,99.62
2019-01-30T06:12:49.730Z,99.59
2019-01-30T06:13:49.741Z,99.59
2019-01-30T06:14:49.760Z,99.64
2019-01-30T06:15:49.732Z,99.62
2019-01-30T06:16:49.806Z,99.53
2019-01-30T06:17:49.809Z,99.53
2019-01-30T06:18:49.733Z,99.43
2019-01-30T06:19:49.751Z,99.37
2019-01-30T06:20:49.810Z,99.37
2019-01-30T06:21:49.737Z,99.29
2019-01-30T06:22:49.742Z,99.32
2019-01-30T06:23:49.811Z,99.29
2019-01-30T06:24:49.775Z,99.26
2019-01-30T06:25:49.740Z,99.34
2019-01-30T06:26:49.872Z,99.37
2019-01-30T06:27:49.830Z,99.40
2019-01-30T06:28:49.818Z,0.00
2019-01-30T06:29:49.730Z,99.37
2019-01-30T06:30:49.805Z,99.43
2019-01-30T06:31:49.731Z,99.29
2019-01-30T06:32:49.747Z,99.21
2019-01-30T06:33:49.805Z,99.15
2019-01-30T06:34:49.738Z,99.04
2019-01-30T06:35:49.744Z,98.99
2019-01-30T06:36:49.810Z,98.99
2019-01-30T06:37:49.741Z,98.96
2019-01-30T06:38:49.810Z,99.02
2019-01-30T06:39:49.824Z,99.02
2019-01-30T06:40:49.840Z,98.94
2019-01-30T06:41:49.752Z,99.02
2019-01-30T06:42:49.823Z,99.02
2019-01-30T06:43:49.824Z,99.04
2019-01-30T06:44:49.772Z,99.04
2019-01-30T06:45:49.753Z,99.04
2019-01-30T06:46:49.826Z,99.10
2019-01-30T06:47:49.778Z,99.13
2019-01-30T06:48:49.918Z,99.13
2019-01-30T06:49:49.790Z,99.21
2019-01-30T06:50:49.791Z,99.07
2019-01-30T06:51:49.832Z,99.07
2019-01-30T06:52:49.834Z,99.15
2019-01-30T06:53:49.832Z,99.15
2019-01-30T06:54:49.759Z,99.02
2019-01-30T06:55:49.720Z,98.85
2019-01-30T06:56:49.847Z,98.77
2019-01-30T06:57:49.757Z,98.69
2019-01-30T06:58:49.761Z,98.50
2019-01-30T06:59:49.790Z,98.26
2019-01-30T07:00:49.699Z,98.04
2019-01-30T07:01:49.712Z,97.88
2019-01-30T07:02:49.682Z,97.61
2019-01-30T07:03:49.733Z,97.18
2019-01-30T07:04:49.759Z,96.99
2019-01-30T07:05:49.721Z,96.74
2019-01-30T07:06:49.716Z,96.55
2019-01-30T07:07:49.694Z,96.42
2019-01-30T07:08:49.722Z,96.34
2019-01-30T07:09:49.774Z,96.28
2019-01-30T07:10:49.851Z,96.04
2019-01-30T07:11:49.771Z,95.96
2019-01-30T07:12:49.769Z,95.91
2019-01-30T07:13:49.856Z,95.94
2019-01-30T07:14:49.781Z,95.96
2019-01-30T07:15:49.794Z,96.02
2019-01-30T07:16:49.867Z,96.02
2019-01-30T07:17:49.775Z,96.20
2019-01-30T07:18:49.862Z,96.17
2019-01-30T07:19:49.781Z,96.15
2019-01-30T07:20:49.888Z,96.02
2019-01-30T07:21:49.852Z,95.98
2019-01-30T07:22:49.781Z,95.98
2019-01-30T07:23:49.867Z,95.58
2019-01-30T07:24:49.872Z,95.34
2019-01-30T07:25:49.783Z,95.12
2019-01-30T07:26:49.782Z,94.88
2019-01-30T07:27:49.871Z,94.72
2019-01-30T07:28:49.784Z,94.75
2019-01-30T07:29:49.811Z,94.75
2019-01-30T07:30:49.832Z,94.56
2019-01-30T07:31:49.879Z,94.42
2019-01-30T07:32:49.753Z,94.26
2019-01-30T07:33:49.843Z,94.10
2019-01-30T07:34:49.755Z,94.07
2019-01-30T07:35:49.839Z,94.02
2019-01-30T07:36:49.794Z,93.89
2019-01-30T07:37:49.758Z,93.89
2019-01-30T07:38:49.731Z,93.85
2019-01-30T07:39:49.862Z,93.89
2019-01-30T07:40:49.793Z,93.62
2019-01-30T07:41:49.884Z,93.45
2019-01-30T07:42:49.867Z,93.29
2019-01-30T07:43:49.793Z,93.13
2019-01-30T07:44:51.083Z,92.97
2019-01-30T07:45:49.755Z,92.81
2019-01-30T07:46:49.875Z,92.70
2019-01-30T07:47:49.799Z,92.62
2019-01-30T07:48:49.870Z,92.40
2019-01-30T07:49:49.794Z,92.30
2019-01-30T07:50:49.868Z,92.38
2019-01-30T07:51:49.820Z,92.43
2019-01-30T07:52:49.875Z,92.05
2019-01-30T07:53:49.870Z,91.84
2019-01-30T07:54:49.815Z,91.65
2019-01-30T07:55:49.807Z,91.65
2019-01-30T07:56:49.868Z,91.73
2019-01-30T07:57:49.901Z,91.76
2019-01-30T07:58:49.885Z,92.01
2019-01-30T07:59:50.009Z,92.05
2019-01-30T08:00:49.862Z,92.19
2019-01-30T08:01:49.865Z,92.19
2019-01-30T08:02:53.378Z,92.19
2019-01-30T08:03:49.833Z,92.22
2019-01-30T08:04:49.869Z,92.19
2019-01-30T08:05:49.779Z,92.19
2019-01-30T08:06:49.866Z,92.08
2019-01-30T08:07:49.765Z,91.97
2019-01-30T08:08:49.867Z,91.95
2019-01-30T08:09:49.815Z,92.01
2019-01-30T08:10:49.880Z,92.05
2019-01-30T08:11:49.817Z,91.97
2019-01-30T08:12:49.825Z,92.05
2019-01-30T08:13:49.817Z,92.01
2019-01-30T08:14:49.883Z,91.84
2019-01-30T08:15:49.831Z,91.90
2019-01-30T08:16:49.819Z,91.95
2019-01-30T08:17:49.897Z,91.90
2019-01-30T08:18:49.822Z,91.65
2019-01-30T08:19:51.964Z,91.57
2019-01-30T08:20:49.884Z,91.49
2019-01-30T08:21:49.872Z,91.52
2019-01-30T08:22:49.813Z,91.41
2019-01-30T08:23:49.908Z,91.36
2019-01-30T08:24:49.884Z,91.30
2019-01-30T08:25:49.965Z,91.38
2019-01-30T08:26:50.175Z,91.33
2019-01-30T08:27:50.296Z,91.47
2019-01-30T08:28:49.789Z,91.60
2019-01-30T08:29:49.919Z,91.25
2019-01-30T08:30:49.846Z,91.07
2019-01-30T08:31:50.165Z,90.61
2019-01-30T08:32:50.091Z,90.53
2019-01-30T08:33:49.911Z,90.58
2019-01-30T08:34:49.894Z,90.47
2019-01-30T08:36:49.802Z,89.91
2019-01-30T08:37:49.890Z,89.86
2019-01-30T08:38:49.834Z,89.86
2019-01-30T08:39:49.789Z,89.83
2019-01-30T08:40:49.774Z,89.80
2019-01-30T08:41:49.797Z,89.80
2019-01-30T08:42:52.108Z,89.94
2019-01-30T08:43:49.818Z,89.97
2019-01-30T08:44:49.779Z,90.09
2019-01-30T08:45:49.885Z,90.31
2019-01-30T08:46:49.842Z,90.23
2019-01-30T08:47:49.939Z,90.02
2019-01-30T08:48:49.882Z,90.05
2019-01-30T08:49:49.853Z,89.99
2019-01-30T08:50:49.761Z,89.78
2019-01-30T08:51:49.829Z,89.86
2019-01-30T08:52:49.767Z,89.88
2019-01-30T08:53:49.894Z,89.91
2019-01-30T08:54:49.861Z,89.67
2019-01-30T08:55:49.768Z,89.48
2019-01-30T08:56:53.096Z,89.11
2019-01-30T08:57:49.832Z,89.00
2019-01-30T08:58:49.859Z,88.71
2019-01-30T08:59:49.786Z,88.73
2019-01-30T09:00:49.904Z,88.89
2019-01-30T09:01:49.834Z,89.06
2019-01-30T09:02:49.906Z,89.11
2019-01-30T09:03:49.905Z,88.92
2019-01-30T09:04:49.910Z,88.97
2019-01-30T09:05:49.957Z,89.11
2019-01-30T09:06:49.911Z,89.03
2019-01-30T09:07:49.913Z,88.68
2019-01-30T09:08:49.926Z,88.62
2019-01-30T09:09:49.855Z,88.68
2019-01-30T09:10:49.924Z,88.92
2019-01-30T09:11:49.855Z,89.03
2019-01-30T09:12:49.957Z,89.22
2019-01-30T09:13:49.877Z,89.45
2019-01-30T09:14:49.867Z,89.48
2019-01-30T09:15:49.927Z,89.16
2019-01-30T09:16:49.860Z,88.46
2019-01-30T09:17:49.934Z,88.41
2019-01-30T09:18:49.928Z,88.25
2019-01-30T09:19:49.859Z,88.33
2019-01-30T09:20:49.932Z,88.57
2019-01-30T09:21:49.859Z,88.60
2019-01-30T09:22:49.897Z,88.84
2019-01-30T09:23:49.898Z,88.76
2019-01-30T09:24:49.865Z,88.50
2019-01-30T09:25:49.938Z,88.09
2019-01-30T09:26:49.897Z,88.09
2019-01-30T09:27:49.954Z,88.33
2019-01-30T09:28:49.893Z,88.39
2019-01-30T09:29:49.945Z,88.36
2019-01-30T09:30:49.941Z,88.17
2019-01-30T09:31:49.973Z,87.43
2019-01-30T09:32:49.877Z,87.13
2019-01-30T09:33:49.869Z,87.13
2019-01-30T09:34:49.880Z,87.37
2019-01-30T09:35:49.938Z,87.37
2019-01-30T09:36:49.878Z,86.87
2019-01-30T09:37:50.013Z,86.65
2019-01-30T09:38:49.988Z,86.76
2019-01-30T09:39:49.919Z,86.91
2019-01-30T09:40:49.885Z,86.84
2019-01-30T09:41:49.943Z,87.02
2019-01-30T09:42:49.966Z,87.05
2019-01-30T09:43:49.946Z,86.65
2019-01-30T09:44:49.878Z,86.76
2019-01-30T09:45:49.950Z,86.91
2019-01-30T09:46:49.953Z,87.02
2019-01-30T09:47:49.887Z,86.46
2019-01-30T09:48:49.983Z,86.28
2019-01-30T09:49:49.902Z,85.93
2019-01-30T09:50:49.953Z,85.85
2019-01-30T09:51:49.883Z,85.64
2019-01-30T09:52:49.899Z,84.58
2019-01-30T09:53:49.952Z,84.58
2019-01-30T09:54:49.883Z,84.95
2019-01-30T09:55:49.997Z,85.50
2019-01-30T09:56:50.008Z,86.04
2019-01-30T09:57:49.938Z,86.07
2019-01-30T09:58:49.953Z,85.75
2019-01-30T09:59:49.891Z,85.58
2019-01-30T10:00:49.971Z,86.04
2019-01-30T10:01:49.885Z,85.75
2019-01-30T10:02:49.955Z,85.72
2019-01-30T10:03:49.970Z,85.48
2019-01-30T10:04:49.963Z,85.24
2019-01-30T10:05:49.901Z,85.13
2019-01-30T10:06:49.960Z,85.08
2019-01-30T10:07:49.891Z,85.16
2019-01-30T10:08:49.972Z,84.71
2019-01-30T10:09:49.912Z,84.87
2019-01-30T10:10:49.908Z,84.71
2019-01-30T10:11:49.873Z,84.81
2019-01-30T10:12:49.958Z,84.44
2019-01-30T10:13:49.848Z,84.12
2019-01-30T10:14:49.838Z,83.97
2019-01-30T10:15:49.922Z,84.42
2019-01-30T10:16:49.874Z,84.71
2019-01-30T10:17:49.976Z,85.08
2019-01-30T10:18:49.862Z,84.97
2019-01-30T10:19:49.971Z,84.97
2019-01-30T10:20:49.925Z,85.13
2019-01-30T10:21:49.903Z,84.71
2019-01-30T10:22:49.907Z,84.50
2019-01-30T10:23:49.919Z,84.81
2019-01-30T10:24:50.563Z,84.74
2019-01-30T10:25:49.937Z,84.95
2019-01-30T10:26:49.987Z,85.08
2019-01-30T10:27:49.961Z,84.81
2019-01-30T10:28:49.910Z,84.92
2019-01-30T10:29:49.973Z,84.76
2019-01-30T10:30:49.913Z,84.79
2019-01-30T10:31:49.909Z,85.08
2019-01-30T10:32:49.977Z,84.81
2019-01-30T10:33:49.920Z,84.58
2019-01-30T10:34:49.977Z,84.47
2019-01-30T10:35:49.916Z,84.92
2019-01-30T10:36:49.990Z,84.81
2019-01-30T10:37:49.970Z,84.07
2019-01-30T10:38:50.008Z,83.91
2019-01-30T10:39:49.864Z,83.67
2019-01-30T10:40:49.862Z,83.91
2019-01-30T10:41:49.979Z,83.81
2019-01-30T10:42:49.903Z,83.75
2019-01-30T10:43:49.868Z,83.86
2019-01-30T10:44:49.951Z,83.86
2019-01-30T10:45:49.908Z,83.70
2019-01-30T10:46:49.980Z,83.70
2019-01-30T10:47:49.993Z,83.65
2019-01-30T10:48:49.925Z,83.91
2019-01-30T10:49:50.004Z,83.70
2019-01-30T10:50:49.924Z,83.57
2019-01-30T10:51:49.994Z,83.44
2019-01-30T10:52:50.001Z,82.88
2019-01-30T10:53:49.934Z,83.01
2019-01-30T10:54:49.938Z,82.80
2019-01-30T10:55:49.996Z,82.64
2019-01-30T10:56:49.947Z,83.04
2019-01-30T10:57:49.923Z,83.36
2019-01-30T10:58:49.944Z,83.54
2019-01-30T10:59:49.900Z,83.17
2019-01-30T11:00:49.924Z,82.61
2019-01-30T11:01:49.951Z,83.12
2019-01-30T11:02:49.918Z,83.51
2019-01-30T11:03:57.100Z,83.57
2019-01-30T11:04:49.933Z,83.06
2019-01-30T11:05:49.905Z,82.85
2019-01-30T11:06:49.994Z,82.90
2019-01-30T11:07:49.940Z,82.93
2019-01-30T11:08:49.993Z,82.77
2019-01-30T11:09:49.932Z,82.96
2019-01-30T11:10:50.938Z,83.06
2019-01-30T11:11:49.946Z,83.28
2019-01-30T11:12:49.953Z,83.01
2019-01-30T11:13:50.005Z,83.01
2019-01-30T11:14:49.954Z,82.96
2019-01-30T11:15:50.018Z,83.25
2019-01-30T11:16:49.938Z,82.77
2019-01-30T11:17:50.020Z,82.80
2019-01-30T11:18:50.011Z,82.69
2019-01-30T11:19:49.942Z,82.48
2019-01-30T11:20:50.012Z,82.61
2019-01-30T11:21:50.018Z,83.12
2019-01-30T11:22:50.001Z,83.51
2019-01-30T11:23:49.949Z,83.33
2019-01-30T11:24:50.018Z,83.12
2019-01-30T11:25:49.946Z,83.14
2019-01-30T11:26:50.018Z,83.04
2019-01-30T11:27:50.026Z,82.98
2019-01-30T11:28:49.954Z,83.14
2019-01-30T11:29:49.956Z,83.28
2019-01-30T11:30:49.884Z,83.51
2019-01-30T11:31:49.947Z,83.36
2019-01-30T11:32:49.960Z,83.51
2019-01-30T11:33:49.960Z,83.59
2019-01-30T11:34:50.006Z,83.86
2019-01-30T11:35:49.961Z,83.73
2019-01-30T11:36:50.008Z,83.70
2019-01-30T11:37:49.996Z,83.78
2019-01-30T11:38:49.888Z,84.23
2019-01-30T11:39:49.914Z,84.55
2019-01-30T11:40:49.964Z,85.11
2019-01-30T11:41:50.039Z,85.48
2019-01-30T11:42:50.018Z,85.69
2019-01-30T11:43:49.989Z,85.99
2019-01-30T11:44:50.005Z,86.52
2019-01-30T11:45:50.021Z,86.87
2019-01-30T11:46:49.944Z,87.21
2019-01-30T11:47:49.934Z,87.45
2019-01-30T11:48:56.186Z,87.53
2019-01-30T11:49:50.025Z,87.69
2019-01-30T11:50:49.978Z,87.80
2019-01-30T11:51:50.026Z,88.01
2019-01-30T11:52:49.991Z,88.46
2019-01-30T11:53:50.031Z,88.68
2019-01-30T11:54:49.963Z,88.65
2019-01-30T11:55:49.936Z,88.60
2019-01-30T11:56:50.044Z,88.41
2019-01-30T11:57:50.000Z,88.50
2019-01-30T11:58:49.926Z,88.76
2019-01-30T11:59:49.955Z,88.76
2019-01-30T12:00:50.037Z,88.68
2019-01-30T12:01:49.998Z,88.79
2019-01-30T12:02:50.041Z,88.89
2019-01-30T12:03:49.990Z,89.08
2019-01-30T12:04:50.050Z,89.19
2019-01-30T12:05:49.972Z,89.22
2019-01-30T12:06:49.985Z,89.56
2019-01-30T12:07:50.058Z,89.64
2019-01-30T12:08:50.048Z,89.54
2019-01-30T12:09:50.057Z,89.40
2019-01-30T12:10:50.048Z,89.40
2019-01-30T12:11:50.055Z,89.51
2019-01-30T12:12:49.977Z,89.40
2019-01-30T12:13:50.022Z,89.27
2019-01-30T12:14:50.060Z,89.37
2019-01-30T12:15:50.054Z,89.00
2019-01-30T12:16:50.047Z,89.03
2019-01-30T12:17:50.070Z,89.03
2019-01-30T12:18:49.987Z,88.84
2019-01-30T12:19:50.082Z,88.62
2019-01-30T12:20:51.863Z,88.54
2019-01-30T12:21:50.030Z,88.01
2019-01-30T12:22:49.922Z,87.82
2019-01-30T12:23:50.040Z,87.85
2019-01-30T12:24:50.039Z,88.09
2019-01-30T12:25:49.917Z,88.15
2019-01-30T12:26:49.914Z,88.20
2019-01-30T12:27:50.866Z,88.41
2019-01-30T12:28:49.990Z,88.57
2019-01-30T12:29:49.942Z,88.68
2019-01-30T12:30:50.078Z,88.84
2019-01-30T12:31:49.979Z,88.81
2019-01-30T12:32:50.057Z,88.84
2019-01-30T12:33:50.026Z,89.06
2019-01-30T12:34:50.028Z,89.03
2019-01-30T12:35:50.064Z,89.00
2019-01-30T12:36:49.987Z,89.19
2019-01-30T12:37:50.061Z,89.24
2019-01-30T12:38:49.998Z,89.03
2019-01-30T12:39:49.987Z,88.97
2019-01-30T12:40:49.998Z,89.19
2019-01-30T12:41:50.002Z,89.24
2019-01-30T12:42:50.087Z,89.29
2019-01-30T12:43:50.001Z,89.51
2019-01-30T12:44:50.072Z,89.45
2019-01-30T12:45:50.075Z,89.43
2019-01-30T12:46:50.193Z,89.43
2019-01-30T12:47:50.022Z,89.45
2019-01-30T12:48:50.077Z,89.35
2019-01-30T12:49:50.012Z,89.40
2019-01-30T12:50:50.083Z,89.27
2019-01-30T12:51:50.076Z,89.08
2019-01-30T12:52:50.018Z,89.16
2019-01-30T12:53:50.083Z,89.14
2019-01-30T12:54:50.023Z,88.89